createdAt,value
2022-12-11T00:00:59.481Z,96639.00
2022-12-11T00:04:03.306Z,96641.97
2022-12-11T00:07:07.355Z,96641.34
2022-12-11T00:10:11.352Z,96635.53
2022-12-11T00:13:15.293Z,96650.03
2022-12-11T00:16:23.754Z,96648.63
2022-12-11T00:19:30.518Z,96651.38
2022-12-11T00:22:34.431Z,96645.63
2022-12-11T00:25:38.624Z,96648.03
2022-12-11T00:28:42.694Z,96636.63
2022-12-11T00:31:46.695Z,96648.34
2022-12-11T00:34:50.678Z,96643.75
2022-12-11T00:37:54.724Z,96641.22
2022-12-11T00:40:58.664Z,96654.19
2022-12-11T00:44:02.648Z,96656.22
2022-12-11T00:47:06.478Z,96654.41
2022-12-11T00:50:10.435Z,96653.13
2022-12-11T00:53:14.427Z,96647.91
2022-12-11T00:56:18.414Z,96642.63
2022-12-11T00:59:22.423Z,96641.78
2022-12-11T01:02:26.242Z,96645.00
2022-12-11T01:05:30.494Z,96659.13
2022-12-11T01:08:38.536Z,96651.63
2022-12-11T01:11:42.774Z,96653.94
2022-12-11T01:14:47.089Z,96638.13
2022-12-11T01:17:52.245Z,96648.56
2022-12-11T01:20:56.087Z,96648.88
2022-12-11T01:24:00.185Z,96654.97
2022-12-11T01:27:04.181Z,96665.72
2022-12-11T01:30:08.018Z,96680.09
2022-12-11T01:33:11.923Z,96681.38
2022-12-11T01:36:15.723Z,96679.91
2022-12-11T01:39:19.762Z,96678.06
2022-12-11T01:42:23.650Z,96670.25
2022-12-11T01:45:27.654Z,96672.88
2022-12-11T01:48:31.308Z,96685.50
2022-12-11T01:51:35.431Z,96673.16
2022-12-11T01:54:39.272Z,96672.09
2022-12-11T01:57:43.275Z,96664.25
2022-12-11T02:00:47.356Z,96659.50
2022-12-11T02:03:51.339Z,96664.09
2022-12-11T02:06:55.244Z,96666.09
2022-12-11T02:09:59.259Z,96659.16
2022-12-11T02:13:03.195Z,96661.59
2022-12-11T02:16:07.164Z,96673.63
2022-12-11T02:19:10.923Z,96674.81
2022-12-11T02:22:14.869Z,96677.03
2022-12-11T02:25:18.748Z,96678.50
2022-12-11T02:28:22.392Z,96683.50
2022-12-11T02:31:26.611Z,96681.28
2022-12-11T02:34:31.307Z,96681.34
2022-12-11T02:37:35.186Z,96666.47
2022-12-11T02:40:39.277Z,96667.09
2022-12-11T02:43:42.883Z,96671.72
2022-12-11T02:46:46.820Z,96686.38
2022-12-11T02:49:50.822Z,96681.03
2022-12-11T02:52:54.894Z,96670.91
2022-12-11T02:55:58.953Z,96678.44
2022-12-11T02:59:03.038Z,96682.13
2022-12-11T03:02:06.825Z,96684.56
2022-12-11T03:05:10.967Z,96686.03
2022-12-11T03:08:15.421Z,96690.03
2022-12-11T03:11:19.137Z,96691.81
2022-12-11T03:14:23.005Z,96696.13
2022-12-11T03:17:27.069Z,96703.31
2022-12-11T03:20:31.120Z,96688.44
2022-12-11T03:23:35.180Z,96682.31
2022-12-11T03:26:39.173Z,96683.69
2022-12-11T03:29:43.211Z,96683.94
2022-12-11T03:32:47.384Z,96679.28
2022-12-11T03:35:51.420Z,96684.19
2022-12-11T03:38:55.304Z,96684.47
2022-12-11T03:41:59.309Z,96684.25
2022-12-11T03:45:03.354Z,96684.69
2022-12-11T03:48:07.331Z,96681.06
2022-12-11T03:51:11.293Z,96678.34
2022-12-11T03:54:15.224Z,96684.13
2022-12-11T03:57:19.239Z,96673.69
2022-12-11T04:00:23.254Z,96684.53
2022-12-11T04:03:27.204Z,96682.22
2022-12-11T04:06:30.989Z,96686.41
2022-12-11T04:09:34.843Z,96687.41
2022-12-11T04:12:38.935Z,96692.22
2022-12-11T04:15:42.841Z,96696.66
2022-12-11T04:18:46.698Z,96688.38
2022-12-11T04:21:50.539Z,96693.84
2022-12-11T04:24:54.741Z,96684.41
2022-12-11T04:27:58.965Z,96686.84
2022-12-11T04:31:02.760Z,96688.03
2022-12-11T04:34:07.569Z,96684.50
2022-12-11T04:37:11.574Z,96691.81
2022-12-11T04:40:15.572Z,96690.19
2022-12-11T04:43:19.486Z,96685.03
2022-12-11T04:46:23.264Z,96682.06
2022-12-11T04:49:27.049Z,96686.75
2022-12-11T04:52:30.907Z,96680.66
2022-12-11T04:55:34.930Z,96666.75
2022-12-11T04:58:38.981Z,96665.38
2022-12-11T05:01:42.905Z,96669.75
2022-12-11T05:04:46.809Z,96681.16
2022-12-11T05:07:50.922Z,96667.09
2022-12-11T05:10:54.903Z,96669.06
2022-12-11T05:13:58.723Z,96669.38
2022-12-11T05:17:02.669Z,96657.88
2022-12-11T05:20:06.713Z,96667.38
2022-12-11T05:23:10.651Z,96660.16
2022-12-11T05:26:14.615Z,96673.72
2022-12-11T05:29:18.583Z,96671.44
2022-12-11T05:32:22.774Z,96670.06
2022-12-11T05:35:26.861Z,96674.09
2022-12-11T05:38:31.021Z,96666.94
2022-12-11T05:41:35.013Z,96663.88
2022-12-11T05:44:39.186Z,96674.94
2022-12-11T05:47:42.963Z,96667.06
2022-12-11T05:50:46.874Z,96678.97
2022-12-11T05:53:50.884Z,96676.00
2022-12-11T05:56:54.818Z,96674.56
2022-12-11T05:59:58.928Z,96667.63
2022-12-11T06:03:03.123Z,96665.34
2022-12-11T06:06:06.846Z,96653.31
2022-12-11T06:09:10.727Z,96657.50
2022-12-11T06:12:14.844Z,96652.63
2022-12-11T06:15:18.856Z,96636.78
2022-12-11T06:18:22.807Z,96643.72
2022-12-11T06:21:26.511Z,96641.41
2022-12-11T06:24:30.545Z,96647.84
2022-12-11T06:27:34.782Z,96648.38
2022-12-11T06:30:39.668Z,96660.50
2022-12-11T06:33:43.310Z,96660.66
2022-12-11T06:36:47.253Z,96665.06
2022-12-11T06:39:51.277Z,96663.66
2022-12-11T06:42:55.387Z,96662.31
2022-12-11T06:46:03.845Z,96654.00
2022-12-11T06:49:08.431Z,96657.22
2022-12-11T06:52:18.167Z,96656.72
2022-12-11T06:55:22.720Z,96652.31
2022-12-11T06:58:26.820Z,96654.97
2022-12-11T07:01:30.737Z,96648.97
2022-12-11T07:04:34.691Z,96649.94
2022-12-11T07:07:38.661Z,96652.63
2022-12-11T07:10:42.749Z,96651.53
2022-12-11T07:13:46.535Z,96654.50
2022-12-11T07:16:50.475Z,96648.25
2022-12-11T07:19:54.560Z,96653.50
2022-12-11T07:22:58.627Z,96656.94
2022-12-11T07:26:02.664Z,96643.84
2022-12-11T07:29:06.577Z,96645.69
2022-12-11T07:32:10.679Z,96654.00
2022-12-11T07:35:14.663Z,96657.00
2022-12-11T07:38:18.696Z,96656.69
2022-12-11T07:41:22.611Z,96661.25
2022-12-11T07:44:26.719Z,96657.94
2022-12-11T07:47:30.826Z,96654.72
2022-12-11T07:50:39.630Z,96644.06
2022-12-11T07:53:44.417Z,96652.38
2022-12-11T07:56:53.204Z,96649.66
2022-12-11T07:59:57.555Z,96650.78
2022-12-11T08:03:01.530Z,96650.97
2022-12-11T08:06:05.383Z,96642.22
2022-12-11T08:09:09.339Z,96642.47
2022-12-11T08:12:13.596Z,96642.53
2022-12-11T08:15:17.734Z,96633.78
2022-12-11T08:18:21.793Z,96633.41
2022-12-11T08:21:25.613Z,96636.16
2022-12-11T08:24:29.932Z,96642.72
2022-12-11T08:27:34.027Z,96654.34
2022-12-11T08:30:38.015Z,96647.66
2022-12-11T08:33:41.873Z,96642.59
2022-12-11T08:36:45.802Z,96638.25
2022-12-11T08:39:49.851Z,96633.72
2022-12-11T08:42:54.020Z,96627.25
2022-12-11T08:45:58.114Z,96629.66
2022-12-11T08:49:02.121Z,96622.47
2022-12-11T08:52:06.256Z,96622.13
2022-12-11T08:55:10.649Z,96625.53
2022-12-11T08:58:14.502Z,96624.09
2022-12-11T09:01:18.281Z,96636.19
2022-12-11T09:04:22.153Z,96609.34
2022-12-11T09:07:26.143Z,96630.56
2022-12-11T09:10:30.127Z,96629.66
2022-12-11T09:13:34.200Z,96629.75
2022-12-11T09:16:38.263Z,96631.13
2022-12-11T09:19:42.115Z,96628.44
2022-12-11T09:22:46.146Z,96618.94
2022-12-11T09:25:50.190Z,96633.16
2022-12-11T09:28:54.276Z,96640.50
2022-12-11T09:31:58.130Z,96632.53
2022-12-11T09:35:02.064Z,96628.88
2022-12-11T09:38:06.148Z,96623.44
2022-12-11T09:41:10.024Z,96623.06
2022-12-11T09:44:13.992Z,96615.03
2022-12-11T09:47:18.097Z,96615.47
2022-12-11T09:50:22.329Z,96615.88
2022-12-11T09:53:29.691Z,96627.25
2022-12-11T09:56:36.403Z,96627.16
2022-12-11T09:59:40.355Z,96631.25
2022-12-11T10:02:44.378Z,96639.22
2022-12-11T10:05:48.246Z,96630.63
2022-12-11T10:08:52.222Z,96637.44
2022-12-11T10:11:57.107Z,96631.03
2022-12-11T10:15:00.884Z,96637.03
2022-12-11T10:18:05.416Z,96632.84
2022-12-11T10:21:09.162Z,96629.31
2022-12-11T10:24:24.259Z,96625.44
2022-12-11T10:27:37.116Z,96613.44
2022-12-11T10:30:41.156Z,96610.88
2022-12-11T10:33:45.083Z,96613.34
2022-12-11T10:36:49.226Z,96610.84
2022-12-11T10:39:53.499Z,96614.03
2022-12-11T10:42:57.301Z,96610.06
2022-12-11T10:46:01.181Z,96602.25
2022-12-11T10:49:05.375Z,96609.63
2022-12-11T10:52:09.479Z,96596.25
2022-12-11T10:55:13.851Z,96602.88
2022-12-11T10:58:17.706Z,96599.44
2022-12-11T11:01:21.907Z,96594.88
2022-12-11T11:04:26.031Z,96594.03
2022-12-11T11:07:29.988Z,96594.25
2022-12-11T11:10:34.021Z,96589.81
2022-12-11T11:13:38.193Z,96593.91
2022-12-11T11:16:42.029Z,96587.31
2022-12-11T11:19:46.041Z,96587.00
2022-12-11T11:22:50.042Z,96581.09
2022-12-11T11:25:54.204Z,96587.50
2022-12-11T11:28:58.362Z,96575.69
2022-12-11T11:32:02.412Z,96583.06
2022-12-11T11:35:06.428Z,96572.28
2022-12-11T11:38:10.802Z,96582.91
2022-12-11T11:41:15.377Z,96568.31
2022-12-11T11:44:20.824Z,96563.91
2022-12-11T11:47:24.862Z,96563.38
2022-12-11T11:50:28.760Z,96561.06
2022-12-11T11:53:34.020Z,96560.69
2022-12-11T11:56:38.160Z,96562.06
2022-12-11T11:59:42.091Z,96558.63
2022-12-11T12:02:46.120Z,96560.16
2022-12-11T12:05:50.223Z,96552.34
2022-12-11T12:08:54.386Z,96547.13
2022-12-11T12:11:58.340Z,96542.78
2022-12-11T12:15:02.319Z,96533.16
2022-12-11T12:18:06.443Z,96526.91
2022-12-11T12:21:10.424Z,96530.75
2022-12-11T12:24:14.403Z,96525.53
2022-12-11T12:27:50.397Z,96536.56
2022-12-11T12:30:42.119Z,96530.06
2022-12-11T12:33:46.070Z,96538.13
2022-12-11T12:36:49.960Z,96538.31
2022-12-11T12:39:54.069Z,96536.41
2022-12-11T12:42:58.037Z,96542.91
2022-12-11T12:46:01.719Z,96546.28
2022-12-11T12:49:05.707Z,96542.44
2022-12-11T12:52:10.107Z,96537.19
2022-12-11T12:55:14.427Z,96531.50
2022-12-11T12:58:18.381Z,96528.44
2022-12-11T13:01:22.171Z,96538.31
2022-12-11T13:04:47.462Z,96533.63
2022-12-11T13:07:54.283Z,96530.31
2022-12-11T13:10:58.477Z,96531.81
2022-12-11T13:14:02.120Z,96528.69
2022-12-11T13:17:06.297Z,96518.16
2022-12-11T13:20:10.240Z,96520.72
2022-12-11T13:23:14.086Z,96517.53
2022-12-11T13:26:18.122Z,96516.63
2022-12-11T13:29:22.028Z,96511.69
2022-12-11T13:32:25.473Z,96510.13
2022-12-11T13:35:29.507Z,96510.50
2022-12-11T13:38:33.743Z,96511.63
2022-12-11T13:41:38.017Z,96508.84
2022-12-11T13:44:42.161Z,96508.91
2022-12-11T13:47:46.098Z,96500.44
2022-12-11T13:50:50.093Z,96505.16
2022-12-11T13:53:53.994Z,96504.38
2022-12-11T13:56:58.310Z,96515.50
2022-12-11T14:00:02.172Z,96513.03
2022-12-11T14:03:05.982Z,96497.38
2022-12-11T14:06:13.332Z,96501.63
2022-12-11T14:09:22.095Z,96511.72
2022-12-11T14:12:26.186Z,96510.81
2022-12-11T14:15:30.260Z,96504.59
2022-12-11T14:18:34.433Z,96507.44
2022-12-11T14:21:38.489Z,96505.25
2022-12-11T14:24:42.480Z,96516.13
2022-12-11T14:27:47.713Z,96511.59
2022-12-11T14:30:51.818Z,96515.75
2022-12-11T14:33:56.056Z,96513.91
2022-12-11T14:37:00.415Z,96511.88
2022-12-11T14:40:04.255Z,96510.72
2022-12-11T14:43:08.307Z,96515.19
2022-12-11T14:46:12.756Z,96514.28
2022-12-11T14:49:17.044Z,96516.91
2022-12-11T14:52:21.096Z,96520.41
2022-12-11T14:55:25.172Z,96520.53
2022-12-11T14:58:29.273Z,96527.13
2022-12-11T15:01:34.336Z,96524.00
2022-12-11T15:04:38.506Z,96518.16
2022-12-11T15:07:42.610Z,96525.09
2022-12-11T15:10:49.574Z,96521.56
2022-12-11T15:13:56.509Z,96523.88
2022-12-11T15:17:00.715Z,96525.31
2022-12-11T15:20:06.835Z,96528.56
2022-12-11T15:23:15.498Z,96523.00
2022-12-11T15:26:22.649Z,96530.78
2022-12-11T15:29:27.695Z,96528.31
2022-12-11T15:32:34.142Z,96530.53
2022-12-11T15:35:38.053Z,96521.94
2022-12-11T15:38:41.854Z,96533.66
2022-12-11T15:41:45.577Z,96534.13
2022-12-11T15:44:49.522Z,96540.34
2022-12-11T15:47:53.975Z,96545.13
2022-12-11T15:50:57.709Z,96547.94
2022-12-11T15:54:01.820Z,96550.31
2022-12-11T15:57:06.140Z,96553.34
2022-12-11T16:00:13.029Z,96554.31
2022-12-11T16:03:16.988Z,96554.28
2022-12-11T16:06:21.292Z,96545.53
2022-12-11T16:09:25.276Z,96547.72
2022-12-11T16:12:29.342Z,96553.69
2022-12-11T16:15:33.528Z,96557.13
2022-12-11T16:18:37.764Z,96561.09
2022-12-11T16:21:41.848Z,96559.75
2022-12-11T16:24:45.751Z,96561.41
2022-12-11T16:27:49.799Z,96556.63
2022-12-11T16:30:53.889Z,96573.56
2022-12-11T16:33:57.893Z,96563.44
2022-12-11T16:37:02.806Z,96566.66
2022-12-11T16:40:06.532Z,96560.59
2022-12-11T16:43:10.641Z,96558.41
2022-12-11T16:46:15.066Z,96557.25
2022-12-11T16:49:19.160Z,96556.69
2022-12-11T16:52:23.080Z,96553.31
2022-12-11T16:55:27.121Z,96545.91
2022-12-11T16:58:31.056Z,96556.09
2022-12-11T17:01:35.132Z,96555.38
2022-12-11T17:04:39.087Z,96559.09
2022-12-11T17:07:42.878Z,96564.69
2022-12-11T17:10:46.813Z,96568.50
2022-12-11T17:13:51.069Z,96568.00
2022-12-11T17:16:54.999Z,96562.66
2022-12-11T17:19:58.869Z,96570.03
2022-12-11T17:23:02.953Z,96578.22
2022-12-11T17:26:06.799Z,96568.91
2022-12-11T17:29:10.895Z,96574.59
2022-12-11T17:32:14.842Z,96574.81
2022-12-11T17:35:18.988Z,96569.16
2022-12-11T17:38:23.104Z,96569.56
2022-12-11T17:41:27.311Z,96571.47
2022-12-11T17:44:31.570Z,96575.38
2022-12-11T17:47:35.216Z,96570.41
2022-12-11T17:50:39.276Z,96572.25
2022-12-11T17:53:43.548Z,96571.09
2022-12-11T17:56:47.475Z,96574.47
2022-12-11T17:59:51.533Z,96572.06
2022-12-11T18:02:58.978Z,96567.88
2022-12-11T18:06:03.182Z,96569.09
2022-12-11T18:09:07.600Z,96565.91
2022-12-11T18:12:13.919Z,96570.09
2022-12-11T18:15:21.018Z,96573.69
2022-12-11T18:18:25.340Z,96572.47
2022-12-11T18:21:29.397Z,96566.09
2022-12-11T18:24:32.999Z,96577.44
2022-12-11T18:27:37.137Z,96573.28
2022-12-11T18:30:41.164Z,96571.31
2022-12-11T18:33:45.270Z,96583.22
2022-12-11T18:36:53.255Z,96577.59
2022-12-11T18:39:57.389Z,96578.97
2022-12-11T18:43:01.478Z,96575.78
2022-12-11T18:46:05.646Z,96576.44
2022-12-11T18:49:09.674Z,96579.19
2022-12-11T18:52:14.025Z,96577.53
2022-12-11T18:55:17.907Z,96581.28
2022-12-11T18:58:22.049Z,96587.13
2022-12-11T19:01:26.068Z,96588.31
2022-12-11T19:04:30.376Z,96583.38
2022-12-11T19:07:34.379Z,96588.38
2022-12-11T19:10:38.451Z,96588.63
2022-12-11T19:13:42.614Z,96590.53
2022-12-11T19:16:46.611Z,96596.63
2022-12-11T19:19:50.880Z,96604.97
2022-12-11T19:22:54.878Z,96600.41
2022-12-11T19:25:58.820Z,96599.81
2022-12-11T19:29:03.080Z,96603.44
2022-12-11T19:32:07.406Z,96602.66
2022-12-11T19:35:11.782Z,96609.84
2022-12-11T19:38:15.824Z,96601.25
2022-12-11T19:41:19.490Z,96603.28
2022-12-11T19:44:23.350Z,96602.06
2022-12-11T19:47:27.512Z,96599.44
2022-12-11T19:50:31.655Z,96590.56
2022-12-11T19:53:35.262Z,96590.00
2022-12-11T19:56:39.200Z,96590.31
2022-12-11T19:59:43.361Z,96596.47
2022-12-11T20:02:47.678Z,96604.84
2022-12-11T20:05:51.729Z,96601.16
2022-12-11T20:08:55.559Z,96603.78
2022-12-11T20:11:59.661Z,96597.19
2022-12-11T20:15:03.752Z,96603.63
2022-12-11T20:18:07.679Z,96606.03
2022-12-11T20:21:11.542Z,96609.03
2022-12-11T20:24:16.468Z,96605.22
2022-12-11T20:27:20.498Z,96605.22
2022-12-11T20:30:24.403Z,96599.69
2022-12-11T20:33:28.508Z,96603.13
2022-12-11T20:36:32.644Z,96591.06
2022-12-11T20:39:36.881Z,96595.25
2022-12-11T20:42:41.411Z,96591.34
2022-12-11T20:45:45.676Z,96594.03
2022-12-11T20:48:49.759Z,96598.13
2022-12-11T20:51:53.633Z,96587.13
2022-12-11T20:54:57.455Z,96584.13
2022-12-11T20:58:01.664Z,96581.63
2022-12-11T21:01:05.970Z,96592.44
2022-12-11T21:04:09.951Z,96583.03
2022-12-11T21:07:16.062Z,96581.84
2022-12-11T21:10:20.223Z,96582.25
2022-12-11T21:13:24.459Z,96581.88
2022-12-11T21:16:28.706Z,96583.81
2022-12-11T21:19:32.395Z,96579.38
2022-12-11T21:22:36.506Z,96587.00
2022-12-11T21:25:40.713Z,96587.06
2022-12-11T21:28:44.754Z,96582.09
2022-12-11T21:31:48.594Z,96575.66
2022-12-11T21:34:52.502Z,96576.22
2022-12-11T21:37:56.821Z,96579.88
2022-12-11T21:41:01.090Z,96573.91
2022-12-11T21:47:28.599Z,96582.72
2022-12-11T21:50:32.696Z,96586.03
2022-12-11T21:53:36.770Z,96590.16
2022-12-11T21:56:40.943Z,96588.06
2022-12-11T21:59:45.119Z,96590.44
2022-12-11T22:02:49.417Z,96590.41
2022-12-11T22:05:53.129Z,96594.78
2022-12-11T22:08:56.957Z,96599.56
2022-12-11T22:12:01.033Z,96585.06
2022-12-11T22:15:05.259Z,96594.00
2022-12-11T22:18:09.143Z,96591.84
2022-12-11T22:21:13.131Z,96599.44
2022-12-11T22:24:17.066Z,96592.88
2022-12-11T22:27:23.913Z,96598.28
2022-12-11T22:30:28.342Z,96594.88
2022-12-11T22:33:32.300Z,96595.09
2022-12-11T22:36:36.098Z,96595.47
2022-12-11T22:39:40.034Z,96602.09
2022-12-11T22:42:44.271Z,96590.69
2022-12-11T22:45:48.400Z,96602.81
2022-12-11T22:48:52.457Z,96597.06
2022-12-11T22:51:56.171Z,96596.03
2022-12-11T22:55:00.086Z,96605.44
2022-12-11T22:58:04.455Z,96591.47
2022-12-11T23:01:08.620Z,96599.66
2022-12-11T23:04:12.325Z,96599.69
2022-12-11T23:07:16.067Z,96601.69
2022-12-11T23:10:19.744Z,96600.47
2022-12-11T23:13:23.848Z,96602.66
2022-12-11T23:16:27.821Z,96600.88
2022-12-11T23:19:31.711Z,96600.66
2022-12-11T23:22:36.052Z,96603.31
2022-12-11T23:25:40.564Z,96601.66
2022-12-11T23:28:44.570Z,96606.66
2022-12-11T23:31:48.435Z,96604.44
2022-12-11T23:34:52.132Z,96604.06
2022-12-11T23:37:56.212Z,96610.66
2022-12-11T23:41:00.446Z,96608.28
2022-12-11T23:44:04.605Z,96618.25
2022-12-11T23:47:08.412Z,96608.88
2022-12-11T23:50:12.615Z,96611.22
2022-12-11T23:53:16.519Z,96608.78
2022-12-11T23:56:20.478Z,96607.41
2022-12-11T23:59:24.496Z,96610.53
